sensor_id;sensor_type;location;lat;lon;timestamp;temperature;humidity
1297;DHT22;641;48.492;9.184;2023-03-01T00:01:09;0.30;99.90
1297;DHT22;641;48.492;9.184;2023-03-01T00:03:36;0.30;99.90
1297;DHT22;641;48.492;9.184;2023-03-01T00:06:03;0.30;99.90
1297;DHT22;641;48.492;9.184;2023-03-01T00:08:30;0.20;99.90
1297;DHT22;641;48.492;9.184;2023-03-01T00:11:13;0.10;99.90
1297;DHT22;641;48.492;9.184;2023-03-01T00:13:40;0.20;99.90
1297;DHT22;641;48.492;9.184;2023-03-01T00:16:21;0.30;99.90
1297;DHT22;641;48.492;9.184;2023-03-01T00:18:46;0.30;99.90
1297;DHT22;641;48.492;9.184;2023-03-01T00:21:12;0.20;99.90
1297;DHT22;641;48.492;9.184;2023-03-01T00:43:16;-0.10;99.90
1297;DHT22;641;48.492;9.184;2023-03-01T00:45:42;0.10;99.90
1297;DHT22;641;48.492;9.184;2023-03-01T00:48:08;0.50;99.90
1297;DHT22;641;48.492;9.184;2023-03-01T00:50:33;0.60;99.90
1297;DHT22;641;48.492;9.184;2023-03-01T00:52:59;0.30;99.90
1297;DHT22;641;48.492;9.184;2023-03-01T00:55:26;0.30;99.90
1297;DHT22;641;48.492;9.184;2023-03-01T00:57:51;0.20;99.90
1297;DHT22;641;48.492;9.184;2023-03-01T01:00:18;0.10;99.90
1297;DHT22;641;48.492;9.184;2023-03-01T01:02:45;0.20;99.90
1297;DHT22;641;48.492;9.184;2023-03-01T01:05:11;0.10;99.90
1297;DHT22;641;48.492;9.184;2023-03-01T01:07:37;0.30;99.90
1297;DHT22;641;48.492;9.184;2023-03-01T01:10:04;0.40;99.90
1297;DHT22;641;48.492;9.184;2023-03-01T01:12:31;0.40;99.90
1297;DHT22;641;48.492;9.184;2023-03-01T01:14:57;0.40;99.90
1297;DHT22;641;48.492;9.184;2023-03-01T01:17:23;0.20;99.90
1297;DHT22;641;48.492;9.184;2023-03-01T01:19:48;0.10;99.90
1297;DHT22;641;48.492;9.184;2023-03-01T01:22:14;0.20;99.90
1297;DHT22;641;48.492;9.184;2023-03-01T01:24:40;0.10;99.90
1297;DHT22;641;48.492;9.184;2023-03-01T01:27:06;0.30;99.90
1297;DHT22;641;48.492;9.184;2023-03-01T01:29:33;0.20;99.90
1297;DHT22;641;48.492;9.184;2023-03-01T01:31:58;0.10;99.90
1297;DHT22;641;48.492;9.184;2023-03-01T01:34:24;0.20;99.90
1297;DHT22;641;48.492;9.184;2023-03-01T01:36:51;0.20;99.90
1297;DHT22;641;48.492;9.184;2023-03-01T01:39:20;0.30;99.90
1297;DHT22;641;48.492;9.184;2023-03-01T01:41:45;0.20;99.90
1297;DHT22;641;48.492;9.184;2023-03-01T01:44:21;0.10;99.90
1297;DHT22;641;48.492;9.184;2023-03-01T01:47:05;0.30;99.90
1297;DHT22;641;48.492;9.184;2023-03-01T01:49:42;0.20;99.90
1297;DHT22;641;48.492;9.184;2023-03-01T01:55:03;0.30;99.90
1297;DHT22;641;48.492;9.184;2023-03-01T01:57:58;0.40;99.90
1297;DHT22;641;48.492;9.184;2023-03-01T02:00:28;0.70;99.90
1297;DHT22;641;48.492;9.184;2023-03-01T02:03:06;0.60;99.90
1297;DHT22;641;48.492;9.184;2023-03-01T02:08:23;0.50;99.90
1297;DHT22;641;48.492;9.184;2023-03-01T02:10:51;0.30;99.90
1297;DHT22;641;48.492;9.184;2023-03-01T02:13:18;0.80;99.90
1297;DHT22;641;48.492;9.184;2023-03-01T02:15:44;0.80;99.90
1297;DHT22;641;48.492;9.184;2023-03-01T02:18:12;0.90;99.90
1297;DHT22;641;48.492;9.184;2023-03-01T02:23:29;1.00;99.90
1297;DHT22;641;48.492;9.184;2023-03-01T02:28:33;1.10;99.90
1297;DHT22;641;48.492;9.184;2023-03-01T02:31:01;0.90;99.90
1297;DHT22;641;48.492;9.184;2023-03-01T02:33:46;0.90;99.90
1297;DHT22;641;48.492;9.184;2023-03-01T02:36:19;1.10;99.90
1297;DHT22;641;48.492;9.184;2023-03-01T02:38:48;1.20;99.90
1297;DHT22;641;48.492;9.184;2023-03-01T02:41:16;1.20;99.90
1297;DHT22;641;48.492;9.184;2023-03-01T02:43:42;1.10;99.90
1297;DHT22;641;48.492;9.184;2023-03-01T02:46:15;1.10;99.90
1297;DHT22;641;48.492;9.184;2023-03-01T02:48:46;1.20;99.90
1297;DHT22;641;48.492;9.184;2023-03-01T02:51:32;1.10;99.90
1297;DHT22;641;48.492;9.184;2023-03-01T02:54:22;1.10;99.90
1297;DHT22;641;48.492;9.184;2023-03-01T02:56:51;1.10;99.90
1297;DHT22;641;48.492;9.184;2023-03-01T02:59:20;1.00;99.90
1297;DHT22;641;48.492;9.184;2023-03-01T03:01:46;1.00;99.90
1297;DHT22;641;48.492;9.184;2023-03-01T03:04:17;1.00;99.90
1297;DHT22;641;48.492;9.184;2023-03-01T03:06:48;0.90;99.90
1297;DHT22;641;48.492;9.184;2023-03-01T03:09:16;0.90;99.90
1297;DHT22;641;48.492;9.184;2023-03-01T03:11:42;0.90;99.90
1297;DHT22;641;48.492;9.184;2023-03-01T03:14:14;1.20;99.90
1297;DHT22;641;48.492;9.184;2023-03-01T03:16:45;1.30;99.90
1297;DHT22;641;48.492;9.184;2023-03-01T03:19:11;1.10;99.90
1297;DHT22;641;48.492;9.184;2023-03-01T03:21:37;1.00;99.90
1297;DHT22;641;48.492;9.184;2023-03-01T03:24:03;1.20;99.90
1297;DHT22;641;48.492;9.184;2023-03-01T03:26:29;1.10;99.90
1297;DHT22;641;48.492;9.184;2023-03-01T03:28:55;1.20;99.90
1297;DHT22;641;48.492;9.184;2023-03-01T03:31:21;1.30;99.90
1297;DHT22;641;48.492;9.184;2023-03-01T03:33:47;1.60;99.90
1297;DHT22;641;48.492;9.184;2023-03-01T03:36:21;1.30;99.90
1297;DHT22;641;48.492;9.184;2023-03-01T03:38:48;1.20;99.90
1297;DHT22;641;48.492;9.184;2023-03-01T03:41:15;1.10;99.90
1297;DHT22;641;48.492;9.184;2023-03-01T03:43:42;1.30;99.90
1297;DHT22;641;48.492;9.184;2023-03-01T03:46:09;1.20;99.90
1297;DHT22;641;48.492;9.184;2023-03-01T03:48:37;1.30;99.90
1297;DHT22;641;48.492;9.184;2023-03-01T03:51:04;1.40;99.90
1297;DHT22;641;48.492;9.184;2023-03-01T03:53:33;1.50;99.90
1297;DHT22;641;48.492;9.184;2023-03-01T03:55:59;1.30;99.90
1297;DHT22;641;48.492;9.184;2023-03-01T03:58:25;1.50;99.90
1297;DHT22;641;48.492;9.184;2023-03-01T04:00:53;1.20;99.90
1297;DHT22;641;48.492;9.184;2023-03-01T04:03:19;1.10;99.90
1297;DHT22;641;48.492;9.184;2023-03-01T04:05:46;1.00;99.90
1297;DHT22;641;48.492;9.184;2023-03-01T04:13:09;0.90;99.90
1297;DHT22;641;48.492;9.184;2023-03-01T04:15:36;0.90;99.90
1297;DHT22;641;48.492;9.184;2023-03-01T04:18:01;1.10;99.90
1297;DHT22;641;48.492;9.184;2023-03-01T04:20:31;1.30;99.90
1297;DHT22;641;48.492;9.184;2023-03-01T04:30:29;1.10;99.90
1297;DHT22;641;48.492;9.184;2023-03-01T04:32:55;1.20;99.90
1297;DHT22;641;48.492;9.184;2023-03-01T04:35:21;1.10;99.90
1297;DHT22;641;48.492;9.184;2023-03-01T04:37:47;1.20;99.90
1297;DHT22;641;48.492;9.184;2023-03-01T04:40:12;1.20;99.90
1297;DHT22;641;48.492;9.184;2023-03-01T04:42:41;1.30;99.90
1297;DHT22;641;48.492;9.184;2023-03-01T04:45:08;1.40;99.90
1297;DHT22;641;48.492;9.184;2023-03-01T04:47:42;1.40;99.90
1297;DHT22;641;48.492;9.184;2023-03-01T04:52:36;1.50;99.90
1297;DHT22;641;48.492;9.184;2023-03-01T04:55:03;1.50;99.90
1297;DHT22;641;48.492;9.184;2023-03-01T04:57:30;1.30;99.90
1297;DHT22;641;48.492;9.184;2023-03-01T05:02:22;1.60;99.90
1297;DHT22;641;48.492;9.184;2023-03-01T05:04:48;1.90;99.90
1297;DHT22;641;48.492;9.184;2023-03-01T05:07:15;1.90;99.90
1297;DHT22;641;48.492;9.184;2023-03-01T05:09:45;1.50;99.90
1297;DHT22;641;48.492;9.184;2023-03-01T05:12:12;1.40;99.90
1297;DHT22;641;48.492;9.184;2023-03-01T05:14:38;1.60;99.90
1297;DHT22;641;48.492;9.184;2023-03-01T05:19:31;1.60;99.90
1297;DHT22;641;48.492;9.184;2023-03-01T05:21:57;1.70;99.90
1297;DHT22;641;48.492;9.184;2023-03-01T05:24:35;1.50;99.90
1297;DHT22;641;48.492;9.184;2023-03-01T05:27:02;1.50;99.90
1297;DHT22;641;48.492;9.184;2023-03-01T05:29:30;1.40;99.90
1297;DHT22;641;48.492;9.184;2023-03-01T05:31:58;1.30;99.90
1297;DHT22;641;48.492;9.184;2023-03-01T05:34:28;1.30;99.90
1297;DHT22;641;48.492;9.184;2023-03-01T05:36:54;1.40;99.90
1297;DHT22;641;48.492;9.184;2023-03-01T05:39:21;1.30;99.90
1297;DHT22;641;48.492;9.184;2023-03-01T05:41:51;1.50;99.90
1297;DHT22;641;48.492;9.184;2023-03-01T05:44:17;1.50;99.90
1297;DHT22;641;48.492;9.184;2023-03-01T05:46:43;1.30;99.90
1297;DHT22;641;48.492;9.184;2023-03-01T05:49:11;1.40;99.90
1297;DHT22;641;48.492;9.184;2023-03-01T05:51:39;1.40;99.90
1297;DHT22;641;48.492;9.184;2023-03-01T05:54:04;1.60;99.90
1297;DHT22;641;48.492;9.184;2023-03-01T05:56:32;1.60;99.90
1297;DHT22;641;48.492;9.184;2023-03-01T05:58:59;1.40;99.90
1297;DHT22;641;48.492;9.184;2023-03-01T06:01:25;1.30;99.90
1297;DHT22;641;48.492;9.184;2023-03-01T06:03:51;1.50;99.90
1297;DHT22;641;48.492;9.184;2023-03-01T06:06:17;1.40;99.90
1297;DHT22;641;48.492;9.184;2023-03-01T06:08:43;1.70;99.90
1297;DHT22;641;48.492;9.184;2023-03-01T06:11:09;1.70;99.90
1297;DHT22;641;48.492;9.184;2023-03-01T06:13:35;1.70;99.90
1297;DHT22;641;48.492;9.184;2023-03-01T06:16:04;1.60;99.90
1297;DHT22;641;48.492;9.184;2023-03-01T06:18:30;1.80;99.90
1297;DHT22;641;48.492;9.184;2023-03-01T06:20:56;1.70;99.90
1297;DHT22;641;48.492;9.184;2023-03-01T06:23:22;1.50;99.90
1297;DHT22;641;48.492;9.184;2023-03-01T06:25:48;1.60;99.90
1297;DHT22;641;48.492;9.184;2023-03-01T06:28:14;1.70;99.90
1297;DHT22;641;48.492;9.184;2023-03-01T06:30:39;1.50;99.90
1297;DHT22;641;48.492;9.184;2023-03-01T06:33:05;1.40;99.90
1297;DHT22;641;48.492;9.184;2023-03-01T06:35:30;1.80;99.90
1297;DHT22;641;48.492;9.184;2023-03-01T06:37:58;1.70;99.90
1297;DHT22;641;48.492;9.184;2023-03-01T06:40:24;1.70;99.90
1297;DHT22;641;48.492;9.184;2023-03-01T06:42:51;1.50;99.90
1297;DHT22;641;48.492;9.184;2023-03-01T06:45:18;1.30;99.90
1297;DHT22;641;48.492;9.184;2023-03-01T06:47:44;1.40;99.90
1297;DHT22;641;48.492;9.184;2023-03-01T06:50:10;1.30;99.90
1297;DHT22;641;48.492;9.184;2023-03-01T06:52:35;1.20;99.90
1297;DHT22;641;48.492;9.184;2023-03-01T06:55:01;1.60;99.90
1297;DHT22;641;48.492;9.184;2023-03-01T06:57:27;1.70;99.90
1297;DHT22;641;48.492;9.184;2023-03-01T06:59:52;1.60;99.90
1297;DHT22;641;48.492;9.184;2023-03-01T07:02:18;1.60;99.90
1297;DHT22;641;48.492;9.184;2023-03-01T07:04:44;1.60;99.90
1297;DHT22;641;48.492;9.184;2023-03-01T07:07:10;1.50;99.90
1297;DHT22;641;48.492;9.184;2023-03-01T07:09:36;1.50;99.90
1297;DHT22;641;48.492;9.184;2023-03-01T07:12:01;1.60;99.90
1297;DHT22;641;48.492;9.184;2023-03-01T07:14:27;1.30;99.90
1297;DHT22;641;48.492;9.184;2023-03-01T07:16:53;1.60;99.90
1297;DHT22;641;48.492;9.184;2023-03-01T07:19:19;1.60;99.90
1297;DHT22;641;48.492;9.184;2023-03-01T07:21:45;1.60;99.90
1297;DHT22;641;48.492;9.184;2023-03-01T07:24:10;1.60;99.90
1297;DHT22;641;48.492;9.184;2023-03-01T07:26:36;1.60;99.90
1297;DHT22;641;48.492;9.184;2023-03-01T07:29:03;1.60;99.90
1297;DHT22;641;48.492;9.184;2023-03-01T07:31:29;1.70;99.90
1297;DHT22;641;48.492;9.184;2023-03-01T07:33:55;1.60;99.90
1297;DHT22;641;48.492;9.184;2023-03-01T07:36:20;1.70;99.90
1297;DHT22;641;48.492;9.184;2023-03-01T07:38:46;1.70;99.90
1297;DHT22;641;48.492;9.184;2023-03-01T07:41:12;1.70;99.90
1297;DHT22;641;48.492;9.184;2023-03-01T07:43:38;1.80;99.90
1297;DHT22;641;48.492;9.184;2023-03-01T07:46:04;1.70;99.90
1297;DHT22;641;48.492;9.184;2023-03-01T07:48:30;1.60;99.90
1297;DHT22;641;48.492;9.184;2023-03-01T07:51:01;1.60;99.90
1297;DHT22;641;48.492;9.184;2023-03-01T07:53:27;1.70;99.90
1297;DHT22;641;48.492;9.184;2023-03-01T07:56:15;1.70;99.90
1297;DHT22;641;48.492;9.184;2023-03-01T07:58:43;1.60;99.90
1297;DHT22;641;48.492;9.184;2023-03-01T08:01:13;1.60;99.90
1297;DHT22;641;48.492;9.184;2023-03-01T08:03:40;2.00;99.90
1297;DHT22;641;48.492;9.184;2023-03-01T08:06:08;2.10;99.90
1297;DHT22;641;48.492;9.184;2023-03-01T08:08:34;2.00;99.90
1297;DHT22;641;48.492;9.184;2023-03-01T08:11:01;2.00;99.90
1297;DHT22;641;48.492;9.184;2023-03-01T08:13:28;2.00;99.90
1297;DHT22;641;48.492;9.184;2023-03-01T08:15:54;2.10;99.90
1297;DHT22;641;48.492;9.184;2023-03-01T08:18:20;2.10;99.90
1297;DHT22;641;48.492;9.184;2023-03-01T08:20:47;2.20;99.90
1297;DHT22;641;48.492;9.184;2023-03-01T08:23:12;2.30;99.90
1297;DHT22;641;48.492;9.184;2023-03-01T08:25:38;2.30;99.90
1297;DHT22;641;48.492;9.184;2023-03-01T08:28:04;2.50;99.90
1297;DHT22;641;48.492;9.184;2023-03-01T08:30:30;2.30;99.90
1297;DHT22;641;48.492;9.184;2023-03-01T08:32:55;2.20;99.90
1297;DHT22;641;48.492;9.184;2023-03-01T08:35:21;2.20;99.90
1297;DHT22;641;48.492;9.184;2023-03-01T08:37:47;2.20;99.90
1297;DHT22;641;48.492;9.184;2023-03-01T08:42:41;2.50;99.90
1297;DHT22;641;48.492;9.184;2023-03-01T08:47:38;2.30;99.90
1297;DHT22;641;48.492;9.184;2023-03-01T08:50:05;2.70;99.90
1297;DHT22;641;48.492;9.184;2023-03-01T08:57:26;2.70;99.90
1297;DHT22;641;48.492;9.184;2023-03-01T08:59:52;2.90;99.90
1297;DHT22;641;48.492;9.184;2023-03-01T09:02:18;3.00;99.90
1297;DHT22;641;48.492;9.184;2023-03-01T09:07:15;3.00;99.90
1297;DHT22;641;48.492;9.184;2023-03-01T09:17:10;3.30;99.90
1297;DHT22;641;48.492;9.184;2023-03-01T09:19:35;3.20;99.90
1297;DHT22;641;48.492;9.184;2023-03-01T09:22:03;3.50;99.90
1297;DHT22;641;48.492;9.184;2023-03-01T09:24:29;3.40;99.90
1297;DHT22;641;48.492;9.184;2023-03-01T09:29:21;3.50;99.90
1297;DHT22;641;48.492;9.184;2023-03-01T09:34:12;3.40;99.90
1297;DHT22;641;48.492;9.184;2023-03-01T09:36:41;3.50;99.90
1297;DHT22;641;48.492;9.184;2023-03-01T09:39:07;3.60;99.90
1297;DHT22;641;48.492;9.184;2023-03-01T09:41:59;3.80;99.90
1297;DHT22;641;48.492;9.184;2023-03-01T09:47:34;3.50;99.90
1297;DHT22;641;48.492;9.184;2023-03-01T09:52:40;3.80;99.90
1297;DHT22;641;48.492;9.184;2023-03-01T09:55:28;3.70;99.90
1297;DHT22;641;48.492;9.184;2023-03-01T10:00:50;4.00;99.90
1297;DHT22;641;48.492;9.184;2023-03-01T10:06:02;4.40;99.80
1297;DHT22;641;48.492;9.184;2023-03-01T10:08:41;4.20;99.90
1297;DHT22;641;48.492;9.184;2023-03-01T10:16:52;4.80;99.40
1297;DHT22;641;48.492;9.184;2023-03-01T10:19:33;5.00;99.10
1297;DHT22;641;48.492;9.184;2023-03-01T10:22:18;4.90;99.20
1297;DHT22;641;48.492;9.184;2023-03-01T10:24:46;4.60;99.60
1297;DHT22;641;48.492;9.184;2023-03-01T10:32:23;4.90;98.90
1297;DHT22;641;48.492;9.184;2023-03-01T10:34:49;5.20;98.60
1297;DHT22;641;48.492;9.184;2023-03-01T10:37:17;5.00;99.20
1297;DHT22;641;48.492;9.184;2023-03-01T10:40:06;5.00;99.30
1297;DHT22;641;48.492;9.184;2023-03-01T10:42:36;5.10;98.90
1297;DHT22;641;48.492;9.184;2023-03-01T10:45:38;5.40;98.30
1297;DHT22;641;48.492;9.184;2023-03-01T10:50:40;5.70;97.60
1297;DHT22;641;48.492;9.184;2023-03-01T10:53:26;5.60;97.50
1297;DHT22;641;48.492;9.184;2023-03-01T10:56:10;5.50;97.70
1297;DHT22;641;48.492;9.184;2023-03-01T10:58:38;5.40;98.00
1297;DHT22;641;48.492;9.184;2023-03-01T11:01:33;5.60;98.00
1297;DHT22;641;48.492;9.184;2023-03-01T11:04:18;5.60;97.60
1297;DHT22;641;48.492;9.184;2023-03-01T11:06:43;5.70;97.30
1297;DHT22;641;48.492;9.184;2023-03-01T11:09:23;5.90;96.80
1297;DHT22;641;48.492;9.184;2023-03-01T11:11:54;5.90;96.90
1297;DHT22;641;48.492;9.184;2023-03-01T11:14:25;5.80;97.20
1297;DHT22;641;48.492;9.184;2023-03-01T11:19:27;5.80;97.20
1297;DHT22;641;48.492;9.184;2023-03-01T11:24:44;5.90;99.90
1297;DHT22;641;48.492;9.184;2023-03-01T11:37:41;5.90;96.50
1297;DHT22;641;48.492;9.184;2023-03-01T11:45:28;6.30;95.90
1297;DHT22;641;48.492;9.184;2023-03-01T11:50:50;6.30;95.90
1297;DHT22;641;48.492;9.184;2023-03-01T11:53:28;6.30;96.50
1297;DHT22;641;48.492;9.184;2023-03-01T11:56:10;6.40;96.00
1297;DHT22;641;48.492;9.184;2023-03-01T12:04:32;6.50;99.90
1297;DHT22;641;48.492;9.184;2023-03-01T12:07:10;6.80;95.80
1297;DHT22;641;48.492;9.184;2023-03-01T12:23:39;6.90;96.00
1297;DHT22;641;48.492;9.184;2023-03-01T12:36:58;7.30;95.20
1297;DHT22;641;48.492;9.184;2023-03-01T12:50:18;7.40;94.50
1297;DHT22;641;48.492;9.184;2023-03-01T12:52:49;7.30;95.40
1297;DHT22;641;48.492;9.184;2023-03-01T12:55:39;7.30;95.20
1297;DHT22;641;48.492;9.184;2023-03-01T13:01:15;7.50;94.90
1297;DHT22;641;48.492;9.184;2023-03-01T13:04:08;7.80;94.80
1297;DHT22;641;48.492;9.184;2023-03-01T13:20:23;7.70;94.20
1297;DHT22;641;48.492;9.184;2023-03-01T13:23:11;7.80;94.20
1297;DHT22;641;48.492;9.184;2023-03-01T13:33:46;7.60;94.40
1297;DHT22;641;48.492;9.184;2023-03-01T13:39:27;7.90;94.20
1297;DHT22;641;48.492;9.184;2023-03-01T13:41:54;7.80;94.20
1297;DHT22;641;48.492;9.184;2023-03-01T13:49:27;8.30;94.30
1297;DHT22;641;48.492;9.184;2023-03-01T13:51:53;8.30;94.20
1297;DHT22;641;48.492;9.184;2023-03-01T13:54:31;8.30;93.70
1297;DHT22;641;48.492;9.184;2023-03-01T13:56:59;8.00;94.50
1297;DHT22;641;48.492;9.184;2023-03-01T13:59:26;8.20;94.10
1297;DHT22;641;48.492;9.184;2023-03-01T14:04:29;8.30;93.90
1297;DHT22;641;48.492;9.184;2023-03-01T14:07:21;8.00;93.80
1297;DHT22;641;48.492;9.184;2023-03-01T14:09:56;8.10;94.50
1297;DHT22;641;48.492;9.184;2023-03-01T14:15:25;8.00;93.90
1297;DHT22;641;48.492;9.184;2023-03-01T14:18:28;8.20;93.90
1297;DHT22;641;48.492;9.184;2023-03-01T14:20:55;8.20;93.80
1297;DHT22;641;48.492;9.184;2023-03-01T14:25:53;8.20;93.70
1297;DHT22;641;48.492;9.184;2023-03-01T14:28:26;8.00;94.50
1297;DHT22;641;48.492;9.184;2023-03-01T14:36:05;8.30;93.80
1297;DHT22;641;48.492;9.184;2023-03-01T14:38:35;8.30;94.10
1297;DHT22;641;48.492;9.184;2023-03-01T14:41:04;8.50;93.80
1297;DHT22;641;48.492;9.184;2023-03-01T14:43:31;8.40;94.00
1297;DHT22;641;48.492;9.184;2023-03-01T14:45:57;8.40;94.10
1297;DHT22;641;48.492;9.184;2023-03-01T14:48:23;8.40;93.90
1297;DHT22;641;48.492;9.184;2023-03-01T14:50:50;8.60;93.90
1297;DHT22;641;48.492;9.184;2023-03-01T14:53:22;9.10;93.30
1297;DHT22;641;48.492;9.184;2023-03-01T14:55:53;8.40;93.00
1297;DHT22;641;48.492;9.184;2023-03-01T14:58:22;8.40;93.50
1297;DHT22;641;48.492;9.184;2023-03-01T15:01:10;8.40;93.80
1297;DHT22;641;48.492;9.184;2023-03-01T15:03:43;8.40;94.00
1297;DHT22;641;48.492;9.184;2023-03-01T15:08:44;8.50;93.10
1297;DHT22;641;48.492;9.184;2023-03-01T15:18:46;8.20;93.20
1297;DHT22;641;48.492;9.184;2023-03-01T15:21:17;8.10;94.20
1297;DHT22;641;48.492;9.184;2023-03-01T15:28:58;8.40;93.80
1297;DHT22;641;48.492;9.184;2023-03-01T15:31:32;8.50;94.10
1297;DHT22;641;48.492;9.184;2023-03-01T15:34:23;8.50;93.90
1297;DHT22;641;48.492;9.184;2023-03-01T15:36:50;8.20;94.30
1297;DHT22;641;48.492;9.184;2023-03-01T15:41:52;8.20;94.10
1297;DHT22;641;48.492;9.184;2023-03-01T15:44:32;8.00;93.80
1297;DHT22;641;48.492;9.184;2023-03-01T15:49:36;7.70;94.10
1297;DHT22;641;48.492;9.184;2023-03-01T15:54:29;7.80;94.30
1297;DHT22;641;48.492;9.184;2023-03-01T15:59:21;7.70;95.40
1297;DHT22;641;48.492;9.184;2023-03-01T16:04:16;8.10;94.70
1297;DHT22;641;48.492;9.184;2023-03-01T16:09:23;8.20;93.50
1297;DHT22;641;48.492;9.184;2023-03-01T16:16:42;8.10;93.90
1297;DHT22;641;48.492;9.184;2023-03-01T16:19:07;8.00;94.40
1297;DHT22;641;48.492;9.184;2023-03-01T16:21:33;7.90;94.40
1297;DHT22;641;48.492;9.184;2023-03-01T16:28:54;7.90;93.80
1297;DHT22;641;48.492;9.184;2023-03-01T16:31:21;7.80;94.50
1297;DHT22;641;48.492;9.184;2023-03-01T16:33:47;7.70;94.70
1297;DHT22;641;48.492;9.184;2023-03-01T16:36:17;7.60;94.60
1297;DHT22;641;48.492;9.184;2023-03-01T16:38:43;7.60;94.30
1297;DHT22;641;48.492;9.184;2023-03-01T16:41:13;7.60;94.40
1297;DHT22;641;48.492;9.184;2023-03-01T16:43:39;7.50;94.50
1297;DHT22;641;48.492;9.184;2023-03-01T16:46:13;7.50;94.40
1297;DHT22;641;48.492;9.184;2023-03-01T16:48:39;7.60;94.50
1297;DHT22;641;48.492;9.184;2023-03-01T16:51:06;7.60;94.40
1297;DHT22;641;48.492;9.184;2023-03-01T16:53:33;7.40;94.70
1297;DHT22;641;48.492;9.184;2023-03-01T16:56:02;7.50;94.60
1297;DHT22;641;48.492;9.184;2023-03-01T16:58:28;7.60;94.60
1297;DHT22;641;48.492;9.184;2023-03-01T17:00:54;7.40;94.50
1297;DHT22;641;48.492;9.184;2023-03-01T17:03:22;7.40;94.60
1297;DHT22;641;48.492;9.184;2023-03-01T17:05:48;7.40;94.50
1297;DHT22;641;48.492;9.184;2023-03-01T17:08:14;7.30;94.80
1297;DHT22;641;48.492;9.184;2023-03-01T17:10:39;7.40;94.60
1297;DHT22;641;48.492;9.184;2023-03-01T17:13:08;7.30;94.50
1297;DHT22;641;48.492;9.184;2023-03-01T17:15:34;7.20;95.00
1297;DHT22;641;48.492;9.184;2023-03-01T17:18:00;7.20;94.40
1297;DHT22;641;48.492;9.184;2023-03-01T17:20:26;7.10;94.60
1297;DHT22;641;48.492;9.184;2023-03-01T17:22:52;7.10;94.80
1297;DHT22;641;48.492;9.184;2023-03-01T17:25:18;7.10;95.00
1297;DHT22;641;48.492;9.184;2023-03-01T17:27:44;7.10;95.20
1297;DHT22;641;48.492;9.184;2023-03-01T17:30:11;7.20;95.10
1297;DHT22;641;48.492;9.184;2023-03-01T17:32:37;7.10;95.10
1297;DHT22;641;48.492;9.184;2023-03-01T17:35:03;7.00;95.20
1297;DHT22;641;48.492;9.184;2023-03-01T17:37:29;7.10;95.20
1297;DHT22;641;48.492;9.184;2023-03-01T17:39:54;7.00;95.30
1297;DHT22;641;48.492;9.184;2023-03-01T17:42:20;7.20;95.20
1297;DHT22;641;48.492;9.184;2023-03-01T17:44:45;7.10;95.30
1297;DHT22;641;48.492;9.184;2023-03-01T17:47:11;7.10;95.40
1297;DHT22;641;48.492;9.184;2023-03-01T17:49:37;6.80;95.30
1297;DHT22;641;48.492;9.184;2023-03-01T17:52:02;6.80;95.50
1297;DHT22;641;48.492;9.184;2023-03-01T17:54:28;7.00;95.30
1297;DHT22;641;48.492;9.184;2023-03-01T17:56:54;6.90;95.60
1297;DHT22;641;48.492;9.184;2023-03-01T17:59:20;7.00;95.60
1297;DHT22;641;48.492;9.184;2023-03-01T18:01:46;6.90;95.70
1297;DHT22;641;48.492;9.184;2023-03-01T18:04:12;7.30;95.40
1297;DHT22;641;48.492;9.184;2023-03-01T18:06:38;7.30;95.40
1297;DHT22;641;48.492;9.184;2023-03-01T18:09:05;7.30;95.30
1297;DHT22;641;48.492;9.184;2023-03-01T18:11:33;7.10;95.50
1297;DHT22;641;48.492;9.184;2023-03-01T18:13:59;7.30;95.10
1297;DHT22;641;48.492;9.184;2023-03-01T18:16:25;7.20;95.20
1297;DHT22;641;48.492;9.184;2023-03-01T18:18:54;7.50;95.40
1297;DHT22;641;48.492;9.184;2023-03-01T18:21:19;7.70;95.10
1297;DHT22;641;48.492;9.184;2023-03-01T18:23:46;7.50;94.70
1297;DHT22;641;48.492;9.184;2023-03-01T18:26:12;7.40;94.60
1297;DHT22;641;48.492;9.184;2023-03-01T18:28:41;7.20;95.30
1297;DHT22;641;48.492;9.184;2023-03-01T18:31:12;7.20;95.50
1297;DHT22;641;48.492;9.184;2023-03-01T18:33:38;7.00;95.80
1297;DHT22;641;48.492;9.184;2023-03-01T18:36:05;7.30;95.20
1297;DHT22;641;48.492;9.184;2023-03-01T18:38:31;7.30;95.40
1297;DHT22;641;48.492;9.184;2023-03-01T18:40:57;7.30;95.20
1297;DHT22;641;48.492;9.184;2023-03-01T18:43:23;7.40;95.00
1297;DHT22;641;48.492;9.184;2023-03-01T18:45:56;7.30;95.20
1297;DHT22;641;48.492;9.184;2023-03-01T18:48:22;7.20;95.30
1297;DHT22;641;48.492;9.184;2023-03-01T18:50:48;7.10;95.50
1297;DHT22;641;48.492;9.184;2023-03-01T18:53:13;7.30;95.40
1297;DHT22;641;48.492;9.184;2023-03-01T18:55:39;7.00;95.60
1297;DHT22;641;48.492;9.184;2023-03-01T18:58:05;6.80;96.00
1297;DHT22;641;48.492;9.184;2023-03-01T19:00:31;7.00;95.70
1297;DHT22;641;48.492;9.184;2023-03-01T19:02:58;6.60;95.90
1297;DHT22;641;48.492;9.184;2023-03-01T19:05:26;6.60;96.30
1297;DHT22;641;48.492;9.184;2023-03-01T19:07:51;6.80;96.00
1297;DHT22;641;48.492;9.184;2023-03-01T19:10:17;6.70;96.20
1297;DHT22;641;48.492;9.184;2023-03-01T19:12:44;6.70;96.40
1297;DHT22;641;48.492;9.184;2023-03-01T19:15:10;6.70;96.00
1297;DHT22;641;48.492;9.184;2023-03-01T19:17:35;6.70;95.90
1297;DHT22;641;48.492;9.184;2023-03-01T19:20:01;6.60;95.90
1297;DHT22;641;48.492;9.184;2023-03-01T19:22:27;6.40;96.50
1297;DHT22;641;48.492;9.184;2023-03-01T19:24:53;6.40;96.80
1297;DHT22;641;48.492;9.184;2023-03-01T19:27:19;6.60;96.40
1297;DHT22;641;48.492;9.184;2023-03-01T19:29:44;6.70;96.40
1297;DHT22;641;48.492;9.184;2023-03-01T19:32:10;6.60;96.20
1297;DHT22;641;48.492;9.184;2023-03-01T19:34:36;6.60;96.10
1297;DHT22;641;48.492;9.184;2023-03-01T19:37:03;6.90;95.90
1297;DHT22;641;48.492;9.184;2023-03-01T19:39:29;6.70;96.10
1297;DHT22;641;48.492;9.184;2023-03-01T19:41:55;6.80;95.90
1297;DHT22;641;48.492;9.184;2023-03-01T19:44:21;6.60;96.90
1297;DHT22;641;48.492;9.184;2023-03-01T19:46:53;6.40;96.60
1297;DHT22;641;48.492;9.184;2023-03-01T19:49:19;6.50;96.50
1297;DHT22;641;48.492;9.184;2023-03-01T19:51:44;6.70;95.80
1297;DHT22;641;48.492;9.184;2023-03-01T19:54:10;6.60;96.10
1297;DHT22;641;48.492;9.184;2023-03-01T19:56:39;6.50;96.50
1297;DHT22;641;48.492;9.184;2023-03-01T19:59:05;6.40;96.20
1297;DHT22;641;48.492;9.184;2023-03-01T20:01:32;6.30;96.50
1297;DHT22;641;48.492;9.184;2023-03-01T20:03:59;6.10;96.80
1297;DHT22;641;48.492;9.184;2023-03-01T20:06:26;6.20;96.80
1297;DHT22;641;48.492;9.184;2023-03-01T20:08:54;6.10;97.20
1297;DHT22;641;48.492;9.184;2023-03-01T20:11:20;5.90;96.90
1297;DHT22;641;48.492;9.184;2023-03-01T20:13:46;5.80;97.30
1297;DHT22;641;48.492;9.184;2023-03-01T20:16:16;5.80;96.60
1297;DHT22;641;48.492;9.184;2023-03-01T20:18:42;6.00;96.60
1297;DHT22;641;48.492;9.184;2023-03-01T20:21:08;5.70;96.80
1297;DHT22;641;48.492;9.184;2023-03-01T20:23:34;5.70;97.40
1297;DHT22;641;48.492;9.184;2023-03-01T20:26:06;5.50;97.00
1297;DHT22;641;48.492;9.184;2023-03-01T20:28:33;5.50;97.60
1297;DHT22;641;48.492;9.184;2023-03-01T20:31:07;5.70;97.60
1297;DHT22;641;48.492;9.184;2023-03-01T20:33:33;5.40;98.50
1297;DHT22;641;48.492;9.184;2023-03-01T20:38:27;4.90;97.70
1297;DHT22;641;48.492;9.184;2023-03-01T20:41:00;4.80;98.20
1297;DHT22;641;48.492;9.184;2023-03-01T20:43:26;4.80;97.90
1297;DHT22;641;48.492;9.184;2023-03-01T20:45:52;5.00;98.20
1297;DHT22;641;48.492;9.184;2023-03-01T20:48:18;4.70;98.40
1297;DHT22;641;48.492;9.184;2023-03-01T20:50:45;5.10;98.30
1297;DHT22;641;48.492;9.184;2023-03-01T20:53:10;5.10;98.30
1297;DHT22;641;48.492;9.184;2023-03-01T20:55:36;5.90;98.30
1297;DHT22;641;48.492;9.184;2023-03-01T20:58:02;5.90;98.60